Terminal Aerodrome Forecast
Issued by NWS Wakefield, VA

Home | Current Version | Previous Version | Text Only | Print | Product List | Glossary On
Versions: 1 2 3 4 5 6 7 8 9 10 11 12 13
691
FTUS41 KAKQ 191120
TAFRIC
TAF
KRIC 191120Z 1912/2012 27006KT P6SM SCT080
      TEMPO 1912/1915 BKN080
     FM191500 31005KT P6SM BKN250
     FM192300 35003KT P6SM SKC=

USA.gov is the U.S. government's official web portal to all federal, state and local government web resources and services.